sensor_id;sensor_type;location;lat;lon;timestamp;temperature;humidity
24618;DHT22;12762;51.730;5.356;2022-07-29T00:00:58;18.90;52.70
24618;DHT22;12762;51.730;5.356;2022-07-29T00:03:25;18.90;52.70
24618;DHT22;12762;51.730;5.356;2022-07-29T00:05:52;18.90;52.70
24618;DHT22;12762;51.730;5.356;2022-07-29T00:08:19;18.90;52.80
24618;DHT22;12762;51.730;5.356;2022-07-29T00:10:47;18.90;52.80
24618;DHT22;12762;51.730;5.356;2022-07-29T00:13:13;18.90;52.80
24618;DHT22;12762;51.730;5.356;2022-07-29T00:15:40;18.90;53.00
24618;DHT22;12762;51.730;5.356;2022-07-29T00:18:07;18.90;53.10
24618;DHT22;12762;51.730;5.356;2022-07-29T00:20:34;18.90;53.00
24618;DHT22;12762;51.730;5.356;2022-07-29T00:23:01;18.90;53.10
24618;DHT22;12762;51.730;5.356;2022-07-29T00:25:28;18.90;53.10
24618;DHT22;12762;51.730;5.356;2022-07-29T00:27:54;18.90;53.20
24618;DHT22;12762;51.730;5.356;2022-07-29T00:30:22;18.90;53.30
24618;DHT22;12762;51.730;5.356;2022-07-29T00:32:49;18.90;53.40
24618;DHT22;12762;51.730;5.356;2022-07-29T00:35:16;18.90;54.20
24618;DHT22;12762;51.730;5.356;2022-07-29T00:38:01;18.90;53.60
24618;DHT22;12762;51.730;5.356;2022-07-29T00:40:28;18.90;53.60
24618;DHT22;12762;51.730;5.356;2022-07-29T00:42:55;18.90;53.70
24618;DHT22;12762;51.730;5.356;2022-07-29T00:45:22;18.90;53.70
24618;DHT22;12762;51.730;5.356;2022-07-29T00:47:49;18.90;53.80
24618;DHT22;12762;51.730;5.356;2022-07-29T00:50:16;18.90;53.90
24618;DHT22;12762;51.730;5.356;2022-07-29T00:52:44;18.90;53.90
24618;DHT22;12762;51.730;5.356;2022-07-29T00:55:13;18.90;53.80
24618;DHT22;12762;51.730;5.356;2022-07-29T00:57:41;18.90;54.00
24618;DHT22;12762;51.730;5.356;2022-07-29T01:00:12;18.90;54.80
24618;DHT22;12762;51.730;5.356;2022-07-29T01:02:39;18.80;54.10
24618;DHT22;12762;51.730;5.356;2022-07-29T01:05:06;18.80;54.10
24618;DHT22;12762;51.730;5.356;2022-07-29T01:07:34;18.80;54.10
24618;DHT22;12762;51.730;5.356;2022-07-29T01:10:04;18.80;54.20
24618;DHT22;12762;51.730;5.356;2022-07-29T01:12:33;18.80;54.10
24618;DHT22;12762;51.730;5.356;2022-07-29T01:15:02;18.80;54.30
24618;DHT22;12762;51.730;5.356;2022-07-29T01:23:05;18.80;54.30
24618;DHT22;12762;51.730;5.356;2022-07-29T01:34:50;18.80;54.20
24618;DHT22;12762;51.730;5.356;2022-07-29T01:38:05;18.80;54.10
24618;DHT22;12762;51.730;5.356;2022-07-29T01:41:03;18.80;53.80
24618;DHT22;12762;51.730;5.356;2022-07-29T01:43:37;18.70;54.00
24618;DHT22;12762;51.730;5.356;2022-07-29T01:46:14;18.70;54.30
24618;DHT22;12762;51.730;5.356;2022-07-29T01:48:50;18.70;54.30
24618;DHT22;12762;51.730;5.356;2022-07-29T01:52:21;18.70;54.50
24618;DHT22;12762;51.730;5.356;2022-07-29T01:54:38;18.70;54.50
24618;DHT22;12762;51.730;5.356;2022-07-29T01:57:15;18.70;54.60
24618;DHT22;12762;51.730;5.356;2022-07-29T01:59:47;18.60;54.70
24618;DHT22;12762;51.730;5.356;2022-07-29T02:02:16;18.60;54.90
24618;DHT22;12762;51.730;5.356;2022-07-29T02:04:46;18.60;54.90
24618;DHT22;12762;51.730;5.356;2022-07-29T02:07:21;18.50;54.90
24618;DHT22;12762;51.730;5.356;2022-07-29T02:09:51;18.50;55.00
24618;DHT22;12762;51.730;5.356;2022-07-29T02:12:19;18.50;55.20
24618;DHT22;12762;51.730;5.356;2022-07-29T02:14:50;18.50;55.30
24618;DHT22;12762;51.730;5.356;2022-07-29T02:17:25;18.50;55.50
24618;DHT22;12762;51.730;5.356;2022-07-29T02:19:56;18.40;55.70
24618;DHT22;12762;51.730;5.356;2022-07-29T02:22:26;18.40;55.80
24618;DHT22;12762;51.730;5.356;2022-07-29T02:24:55;18.40;55.90
24618;DHT22;12762;51.730;5.356;2022-07-29T02:27:23;18.30;56.00
24618;DHT22;12762;51.730;5.356;2022-07-29T02:29:52;18.30;56.20
24618;DHT22;12762;51.730;5.356;2022-07-29T02:32:22;18.30;56.30
24618;DHT22;12762;51.730;5.356;2022-07-29T02:34:51;18.30;56.30
24618;DHT22;12762;51.730;5.356;2022-07-29T02:37:19;18.30;56.50
24618;DHT22;12762;51.730;5.356;2022-07-29T02:39:47;18.20;56.70
24618;DHT22;12762;51.730;5.356;2022-07-29T02:42:17;18.20;56.80
24618;DHT22;12762;51.730;5.356;2022-07-29T02:44:45;18.20;56.90
24618;DHT22;12762;51.730;5.356;2022-07-29T02:47:40;18.20;56.80
24618;DHT22;12762;51.730;5.356;2022-07-29T02:50:19;18.10;56.80
24618;DHT22;12762;51.730;5.356;2022-07-29T03:01:22;18.10;57.10
24618;DHT22;12762;51.730;5.356;2022-07-29T03:03:51;18.00;56.90
24618;DHT22;12762;51.730;5.356;2022-07-29T03:06:20;18.00;57.20
24618;DHT22;12762;51.730;5.356;2022-07-29T03:09:06;18.00;57.30
24618;DHT22;12762;51.730;5.356;2022-07-29T03:11:39;17.90;57.20
24618;DHT22;12762;51.730;5.356;2022-07-29T03:14:20;17.90;57.40
24618;DHT22;12762;51.730;5.356;2022-07-29T03:16:48;17.80;57.40
24618;DHT22;12762;51.730;5.356;2022-07-29T03:19:16;17.80;57.70
24618;DHT22;12762;51.730;5.356;2022-07-29T03:21:43;17.80;57.70
24618;DHT22;12762;51.730;5.356;2022-07-29T03:24:25;17.80;58.00
24618;DHT22;12762;51.730;5.356;2022-07-29T03:26:52;17.70;57.90
24618;DHT22;12762;51.730;5.356;2022-07-29T03:29:19;17.70;57.80
24618;DHT22;12762;51.730;5.356;2022-07-29T03:31:46;17.70;57.90
24618;DHT22;12762;51.730;5.356;2022-07-29T03:34:14;17.70;57.80
24618;DHT22;12762;51.730;5.356;2022-07-29T03:36:41;17.70;58.00
24618;DHT22;12762;51.730;5.356;2022-07-29T03:39:09;17.70;58.10
24618;DHT22;12762;51.730;5.356;2022-07-29T03:41:37;17.70;58.10
24618;DHT22;12762;51.730;5.356;2022-07-29T03:44:07;17.70;58.30
24618;DHT22;12762;51.730;5.356;2022-07-29T03:46:35;17.60;58.20
24618;DHT22;12762;51.730;5.356;2022-07-29T03:49:05;17.60;58.30
24618;DHT22;12762;51.730;5.356;2022-07-29T03:51:35;17.60;58.30
24618;DHT22;12762;51.730;5.356;2022-07-29T03:54:03;17.60;58.40
24618;DHT22;12762;51.730;5.356;2022-07-29T03:56:42;17.60;58.40
24618;DHT22;12762;51.730;5.356;2022-07-29T03:59:10;17.60;58.30
24618;DHT22;12762;51.730;5.356;2022-07-29T04:01:38;17.60;58.50
24618;DHT22;12762;51.730;5.356;2022-07-29T04:04:06;17.60;58.60
24618;DHT22;12762;51.730;5.356;2022-07-29T04:06:44;17.50;58.60
24618;DHT22;12762;51.730;5.356;2022-07-29T04:09:14;17.50;58.80
24618;DHT22;12762;51.730;5.356;2022-07-29T04:11:42;17.40;58.70
24618;DHT22;12762;51.730;5.356;2022-07-29T04:14:28;17.40;58.80
24618;DHT22;12762;51.730;5.356;2022-07-29T04:16:55;17.40;58.80
24618;DHT22;12762;51.730;5.356;2022-07-29T04:19:23;17.40;58.90
24618;DHT22;12762;51.730;5.356;2022-07-29T04:21:50;17.40;59.10
24618;DHT22;12762;51.730;5.356;2022-07-29T04:24:19;17.40;59.00
24618;DHT22;12762;51.730;5.356;2022-07-29T04:26:47;17.30;59.10
24618;DHT22;12762;51.730;5.356;2022-07-29T04:29:14;17.30;59.10
24618;DHT22;12762;51.730;5.356;2022-07-29T04:31:42;17.30;59.10
24618;DHT22;12762;51.730;5.356;2022-07-29T04:34:09;17.30;59.30
24618;DHT22;12762;51.730;5.356;2022-07-29T04:36:37;17.30;59.20
24618;DHT22;12762;51.730;5.356;2022-07-29T04:39:04;17.30;59.40
24618;DHT22;12762;51.730;5.356;2022-07-29T04:41:32;17.30;59.40
24618;DHT22;12762;51.730;5.356;2022-07-29T04:44:00;17.30;59.50
24618;DHT22;12762;51.730;5.356;2022-07-29T04:46:33;17.20;59.40
24618;DHT22;12762;51.730;5.356;2022-07-29T04:49:02;17.20;59.60
24618;DHT22;12762;51.730;5.356;2022-07-29T04:51:34;17.10;59.60
24618;DHT22;12762;51.730;5.356;2022-07-29T04:54:02;17.10;59.80
24618;DHT22;12762;51.730;5.356;2022-07-29T04:56:29;17.10;60.00
24618;DHT22;12762;51.730;5.356;2022-07-29T04:58:56;17.00;60.00
24618;DHT22;12762;51.730;5.356;2022-07-29T05:01:23;17.00;60.10
24618;DHT22;12762;51.730;5.356;2022-07-29T05:03:50;17.00;60.10
24618;DHT22;12762;51.730;5.356;2022-07-29T05:06:21;17.00;60.20
24618;DHT22;12762;51.730;5.356;2022-07-29T05:08:48;17.10;60.20
24618;DHT22;12762;51.730;5.356;2022-07-29T05:11:15;17.00;60.10
24618;DHT22;12762;51.730;5.356;2022-07-29T05:13:48;17.10;60.20
24618;DHT22;12762;51.730;5.356;2022-07-29T05:16:16;17.10;60.30
24618;DHT22;12762;51.730;5.356;2022-07-29T05:18:44;17.20;60.40
24618;DHT22;12762;51.730;5.356;2022-07-29T05:21:11;17.20;60.40
24618;DHT22;12762;51.730;5.356;2022-07-29T05:23:38;17.30;60.40
24618;DHT22;12762;51.730;5.356;2022-07-29T05:26:05;17.40;60.30
24618;DHT22;12762;51.730;5.356;2022-07-29T05:28:35;17.40;60.20
24618;DHT22;12762;51.730;5.356;2022-07-29T05:31:03;17.50;60.20
24618;DHT22;12762;51.730;5.356;2022-07-29T05:33:31;17.50;60.10
24618;DHT22;12762;51.730;5.356;2022-07-29T05:36:03;17.60;60.10
24618;DHT22;12762;51.730;5.356;2022-07-29T05:38:33;17.60;60.10
24618;DHT22;12762;51.730;5.356;2022-07-29T05:41:00;17.60;60.20
24618;DHT22;12762;51.730;5.356;2022-07-29T05:43:34;17.70;60.20
24618;DHT22;12762;51.730;5.356;2022-07-29T05:46:12;17.70;60.30
24618;DHT22;12762;51.730;5.356;2022-07-29T05:48:47;17.70;60.20
24618;DHT22;12762;51.730;5.356;2022-07-29T05:51:14;17.80;60.20
24618;DHT22;12762;51.730;5.356;2022-07-29T05:53:42;17.90;60.40
24618;DHT22;12762;51.730;5.356;2022-07-29T05:56:09;17.90;60.30
24618;DHT22;12762;51.730;5.356;2022-07-29T05:58:36;18.00;60.40
24618;DHT22;12762;51.730;5.356;2022-07-29T06:01:03;18.10;60.20
24618;DHT22;12762;51.730;5.356;2022-07-29T06:03:30;18.10;60.10
24618;DHT22;12762;51.730;5.356;2022-07-29T06:06:00;18.10;60.20
24618;DHT22;12762;51.730;5.356;2022-07-29T06:08:26;18.20;60.20
24618;DHT22;12762;51.730;5.356;2022-07-29T06:10:53;18.30;60.00
24618;DHT22;12762;51.730;5.356;2022-07-29T06:13:20;18.30;59.70
24618;DHT22;12762;51.730;5.356;2022-07-29T06:15:47;18.40;59.80
24618;DHT22;12762;51.730;5.356;2022-07-29T06:18:15;18.50;59.90
24618;DHT22;12762;51.730;5.356;2022-07-29T06:20:41;18.60;60.00
24618;DHT22;12762;51.730;5.356;2022-07-29T06:23:09;18.60;59.70
24618;DHT22;12762;51.730;5.356;2022-07-29T06:25:36;18.70;59.80
24618;DHT22;12762;51.730;5.356;2022-07-29T06:28:03;18.80;59.80
24618;DHT22;12762;51.730;5.356;2022-07-29T06:30:30;18.90;60.00
24618;DHT22;12762;51.730;5.356;2022-07-29T06:32:57;19.00;59.80
24618;DHT22;12762;51.730;5.356;2022-07-29T06:35:24;19.00;59.60
24618;DHT22;12762;51.730;5.356;2022-07-29T06:38:07;19.10;59.50
24618;DHT22;12762;51.730;5.356;2022-07-29T06:40:54;19.20;59.40
24618;DHT22;12762;51.730;5.356;2022-07-29T06:43:36;19.30;59.30
24618;DHT22;12762;51.730;5.356;2022-07-29T06:46:21;19.40;59.20
24618;DHT22;12762;51.730;5.356;2022-07-29T06:48:50;19.50;59.10
24618;DHT22;12762;51.730;5.356;2022-07-29T06:51:18;19.50;58.90
24618;DHT22;12762;51.730;5.356;2022-07-29T06:53:48;19.60;58.90
24618;DHT22;12762;51.730;5.356;2022-07-29T06:56:30;19.60;58.90
24618;DHT22;12762;51.730;5.356;2022-07-29T06:59:07;19.70;58.80
24618;DHT22;12762;51.730;5.356;2022-07-29T07:01:38;19.80;58.70
24618;DHT22;12762;51.730;5.356;2022-07-29T07:04:07;19.80;58.80
24618;DHT22;12762;51.730;5.356;2022-07-29T07:06:35;19.90;58.70
24618;DHT22;12762;51.730;5.356;2022-07-29T07:09:03;20.00;58.60
24618;DHT22;12762;51.730;5.356;2022-07-29T07:11:30;20.10;58.50
24618;DHT22;12762;51.730;5.356;2022-07-29T07:13:57;20.20;58.50
24618;DHT22;12762;51.730;5.356;2022-07-29T07:16:30;20.40;58.30
24618;DHT22;12762;51.730;5.356;2022-07-29T07:18:58;20.60;58.20
24618;DHT22;12762;51.730;5.356;2022-07-29T07:21:26;20.90;58.10
24618;DHT22;12762;51.730;5.356;2022-07-29T07:23:56;21.10;57.80
24618;DHT22;12762;51.730;5.356;2022-07-29T07:26:23;21.40;57.40
24618;DHT22;12762;51.730;5.356;2022-07-29T07:28:50;21.70;57.20
24618;DHT22;12762;51.730;5.356;2022-07-29T07:31:25;21.90;57.20
24618;DHT22;12762;51.730;5.356;2022-07-29T07:33:52;22.40;56.80
24618;DHT22;12762;51.730;5.356;2022-07-29T07:36:20;22.70;56.00
24618;DHT22;12762;51.730;5.356;2022-07-29T07:38:47;23.00;55.70
24618;DHT22;12762;51.730;5.356;2022-07-29T07:41:14;23.50;55.30
24618;DHT22;12762;51.730;5.356;2022-07-29T07:43:41;23.90;54.50
24618;DHT22;12762;51.730;5.356;2022-07-29T07:46:08;24.00;54.00
24618;DHT22;12762;51.730;5.356;2022-07-29T07:48:35;24.20;54.40
24618;DHT22;12762;51.730;5.356;2022-07-29T07:51:02;24.60;54.40
24618;DHT22;12762;51.730;5.356;2022-07-29T07:53:29;25.00;53.50
24618;DHT22;12762;51.730;5.356;2022-07-29T07:55:58;25.30;52.60
24618;DHT22;12762;51.730;5.356;2022-07-29T07:58:36;25.40;52.40
24618;DHT22;12762;51.730;5.356;2022-07-29T08:01:04;25.40;52.20
24618;DHT22;12762;51.730;5.356;2022-07-29T08:03:30;25.50;51.90
24618;DHT22;12762;51.730;5.356;2022-07-29T08:05:57;25.70;51.80
24618;DHT22;12762;51.730;5.356;2022-07-29T08:08:24;25.90;51.50
24618;DHT22;12762;51.730;5.356;2022-07-29T08:10:51;26.00;51.30
24618;DHT22;12762;51.730;5.356;2022-07-29T08:13:28;26.40;51.10
24618;DHT22;12762;51.730;5.356;2022-07-29T08:15:56;26.70;50.70
24618;DHT22;12762;51.730;5.356;2022-07-29T08:18:41;26.90;50.30
24618;DHT22;12762;51.730;5.356;2022-07-29T08:21:09;27.20;50.00
24618;DHT22;12762;51.730;5.356;2022-07-29T08:23:41;27.50;49.90
24618;DHT22;12762;51.730;5.356;2022-07-29T08:26:26;27.80;49.30
24618;DHT22;12762;51.730;5.356;2022-07-29T08:28:56;28.10;48.80
24618;DHT22;12762;51.730;5.356;2022-07-29T08:31:23;28.30;48.60
24618;DHT22;12762;51.730;5.356;2022-07-29T08:33:50;28.50;48.50
24618;DHT22;12762;51.730;5.356;2022-07-29T08:36:17;28.80;48.10
24618;DHT22;12762;51.730;5.356;2022-07-29T08:38:44;29.10;47.40
24618;DHT22;12762;51.730;5.356;2022-07-29T08:41:11;29.30;47.10
24618;DHT22;12762;51.730;5.356;2022-07-29T08:43:42;29.50;46.70
24618;DHT22;12762;51.730;5.356;2022-07-29T08:46:10;29.70;46.20
24618;DHT22;12762;51.730;5.356;2022-07-29T08:48:38;29.60;45.50
24618;DHT22;12762;51.730;5.356;2022-07-29T08:51:07;29.50;45.60
24618;DHT22;12762;51.730;5.356;2022-07-29T08:53:36;29.70;45.60
24618;DHT22;12762;51.730;5.356;2022-07-29T08:56:04;29.80;45.30
24618;DHT22;12762;51.730;5.356;2022-07-29T08:58:33;29.80;45.20
24618;DHT22;12762;51.730;5.356;2022-07-29T09:01:03;29.60;45.00
24618;DHT22;12762;51.730;5.356;2022-07-29T09:03:37;29.50;45.50
24618;DHT22;12762;51.730;5.356;2022-07-29T09:06:05;29.70;45.30
24618;DHT22;12762;51.730;5.356;2022-07-29T09:08:32;29.80;45.20
24618;DHT22;12762;51.730;5.356;2022-07-29T09:11:03;30.10;44.90
24618;DHT22;12762;51.730;5.356;2022-07-29T09:13:31;30.30;44.50
24618;DHT22;12762;51.730;5.356;2022-07-29T09:15:58;30.50;43.90
24618;DHT22;12762;51.730;5.356;2022-07-29T09:18:34;30.70;43.70
24618;DHT22;12762;51.730;5.356;2022-07-29T09:21:02;30.70;43.30
24618;DHT22;12762;51.730;5.356;2022-07-29T09:42:12;31.50;43.00
24618;DHT22;12762;51.730;5.356;2022-07-29T09:44:48;31.50;42.10
24618;DHT22;12762;51.730;5.356;2022-07-29T09:47:17;31.60;41.00
24618;DHT22;12762;51.730;5.356;2022-07-29T09:52:22;31.90;41.30
24618;DHT22;12762;51.730;5.356;2022-07-29T09:54:49;32.10;40.90
24618;DHT22;12762;51.730;5.356;2022-07-29T09:57:27;32.40;40.70
24618;DHT22;12762;51.730;5.356;2022-07-29T10:00:14;32.50;39.90
24618;DHT22;12762;51.730;5.356;2022-07-29T10:02:46;32.50;40.50
24618;DHT22;12762;51.730;5.356;2022-07-29T10:05:23;32.50;39.40
24618;DHT22;12762;51.730;5.356;2022-07-29T10:07:57;32.60;39.50
24618;DHT22;12762;51.730;5.356;2022-07-29T10:12:57;33.10;39.30
24618;DHT22;12762;51.730;5.356;2022-07-29T10:15:38;33.30;38.60
24618;DHT22;12762;51.730;5.356;2022-07-29T10:18:12;33.50;38.70
24618;DHT22;12762;51.730;5.356;2022-07-29T10:20:41;33.80;38.30
24618;DHT22;12762;51.730;5.356;2022-07-29T10:23:09;34.00;37.80
24618;DHT22;12762;51.730;5.356;2022-07-29T10:25:39;34.10;37.90
24618;DHT22;12762;51.730;5.356;2022-07-29T10:28:14;34.10;37.20
24618;DHT22;12762;51.730;5.356;2022-07-29T10:30:43;34.10;36.60
24618;DHT22;12762;51.730;5.356;2022-07-29T10:37:07;34.40;37.20
24618;DHT22;12762;51.730;5.356;2022-07-29T10:44:19;34.40;36.80
24618;DHT22;12762;51.730;5.356;2022-07-29T10:46:50;34.50;36.20
24618;DHT22;12762;51.730;5.356;2022-07-29T10:49:36;34.80;35.80
24618;DHT22;12762;51.730;5.356;2022-07-29T10:52:08;34.90;36.20
24618;DHT22;12762;51.730;5.356;2022-07-29T10:54:43;35.10;35.80
24618;DHT22;12762;51.730;5.356;2022-07-29T10:57:28;35.20;35.30
24618;DHT22;12762;51.730;5.356;2022-07-29T11:00:30;35.30;35.40
24618;DHT22;12762;51.730;5.356;2022-07-29T11:02:57;35.30;35.10
24618;DHT22;12762;51.730;5.356;2022-07-29T11:05:25;35.20;35.10
24618;DHT22;12762;51.730;5.356;2022-07-29T11:10:47;35.20;34.30
24618;DHT22;12762;51.730;5.356;2022-07-29T11:16:12;35.30;35.00
24618;DHT22;12762;51.730;5.356;2022-07-29T11:21:44;35.70;34.30
24618;DHT22;12762;51.730;5.356;2022-07-29T11:24:29;35.80;33.60
24618;DHT22;12762;51.730;5.356;2022-07-29T11:27:18;35.90;33.50
24618;DHT22;12762;51.730;5.356;2022-07-29T11:29:57;35.90;33.70
24618;DHT22;12762;51.730;5.356;2022-07-29T11:32:38;35.90;33.20
24618;DHT22;12762;51.730;5.356;2022-07-29T11:35:18;35.90;32.90
24618;DHT22;12762;51.730;5.356;2022-07-29T11:38:25;36.00;32.80
24618;DHT22;12762;51.730;5.356;2022-07-29T11:41:20;36.10;33.40
24618;DHT22;12762;51.730;5.356;2022-07-29T11:43:52;36.20;32.90
24618;DHT22;12762;51.730;5.356;2022-07-29T11:46:46;36.20;32.20
24618;DHT22;12762;51.730;5.356;2022-07-29T11:49:24;36.10;32.60
24618;DHT22;12762;51.730;5.356;2022-07-29T11:51:59;36.10;32.00
24618;DHT22;12762;51.730;5.356;2022-07-29T11:54:33;36.00;32.20
24618;DHT22;12762;51.730;5.356;2022-07-29T11:57:20;36.00;32.30
24618;DHT22;12762;51.730;5.356;2022-07-29T11:59:51;35.90;32.20
24618;DHT22;12762;51.730;5.356;2022-07-29T12:02:19;35.90;31.60
24618;DHT22;12762;51.730;5.356;2022-07-29T12:05:04;35.90;31.70
24618;DHT22;12762;51.730;5.356;2022-07-29T12:07:37;35.90;31.60
24618;DHT22;12762;51.730;5.356;2022-07-29T12:10:07;35.90;31.20
24618;DHT22;12762;51.730;5.356;2022-07-29T12:12:51;35.90;31.10
24618;DHT22;12762;51.730;5.356;2022-07-29T12:15:19;35.70;31.40
24618;DHT22;12762;51.730;5.356;2022-07-29T12:17:48;35.70;31.20
24618;DHT22;12762;51.730;5.356;2022-07-29T12:20:29;35.70;31.40
24618;DHT22;12762;51.730;5.356;2022-07-29T12:22:56;35.70;30.90
24618;DHT22;12762;51.730;5.356;2022-07-29T12:25:23;35.50;30.60
24618;DHT22;12762;51.730;5.356;2022-07-29T12:28:01;35.50;31.10
24618;DHT22;12762;51.730;5.356;2022-07-29T12:30:54;35.60;30.60
24618;DHT22;12762;51.730;5.356;2022-07-29T12:33:27;35.70;31.40
24618;DHT22;12762;51.730;5.356;2022-07-29T12:35:57;35.70;30.30
24618;DHT22;12762;51.730;5.356;2022-07-29T12:38:40;35.70;30.80
24618;DHT22;12762;51.730;5.356;2022-07-29T12:41:07;35.60;30.80
24618;DHT22;12762;51.730;5.356;2022-07-29T12:43:35;35.70;30.90
24618;DHT22;12762;51.730;5.356;2022-07-29T12:46:13;35.80;31.20
24618;DHT22;12762;51.730;5.356;2022-07-29T12:48:43;35.70;30.90
24618;DHT22;12762;51.730;5.356;2022-07-29T12:51:11;35.30;30.90
24618;DHT22;12762;51.730;5.356;2022-07-29T12:53:41;35.10;31.00
24618;DHT22;12762;51.730;5.356;2022-07-29T12:56:15;34.90;31.30
24618;DHT22;12762;51.730;5.356;2022-07-29T12:59:34;34.80;31.40
24618;DHT22;12762;51.730;5.356;2022-07-29T13:02:03;34.90;32.10
24618;DHT22;12762;51.730;5.356;2022-07-29T13:04:32;35.00;32.00
24618;DHT22;12762;51.730;5.356;2022-07-29T13:07:06;35.00;31.20
24618;DHT22;12762;51.730;5.356;2022-07-29T13:09:41;34.90;31.50
24618;DHT22;12762;51.730;5.356;2022-07-29T13:12:10;34.70;31.50
24618;DHT22;12762;51.730;5.356;2022-07-29T13:14:40;34.80;31.80
24618;DHT22;12762;51.730;5.356;2022-07-29T13:17:11;34.90;31.80
24618;DHT22;12762;51.730;5.356;2022-07-29T13:19:45;35.00;31.30
24618;DHT22;12762;51.730;5.356;2022-07-29T13:22:17;35.20;31.20
24618;DHT22;12762;51.730;5.356;2022-07-29T13:24:51;35.20;30.90
24618;DHT22;12762;51.730;5.356;2022-07-29T13:27:23;35.30;30.30
24618;DHT22;12762;51.730;5.356;2022-07-29T13:29:51;35.30;30.40
24618;DHT22;12762;51.730;5.356;2022-07-29T13:32:20;35.20;30.10
24618;DHT22;12762;51.730;5.356;2022-07-29T13:34:56;35.20;30.40
24618;DHT22;12762;51.730;5.356;2022-07-29T13:37:24;35.10;30.10
24618;DHT22;12762;51.730;5.356;2022-07-29T13:39:51;35.10;30.30
24618;DHT22;12762;51.730;5.356;2022-07-29T13:42:19;35.20;30.10
24618;DHT22;12762;51.730;5.356;2022-07-29T13:44:47;35.00;30.30
24618;DHT22;12762;51.730;5.356;2022-07-29T13:47:20;35.00;30.30
24618;DHT22;12762;51.730;5.356;2022-07-29T13:49:48;34.90;30.10
24618;DHT22;12762;51.730;5.356;2022-07-29T13:52:15;34.90;30.40
24618;DHT22;12762;51.730;5.356;2022-07-29T13:54:42;35.10;30.50
24618;DHT22;12762;51.730;5.356;2022-07-29T13:57:11;35.10;30.10
24618;DHT22;12762;51.730;5.356;2022-07-29T13:59:39;35.00;30.40
24618;DHT22;12762;51.730;5.356;2022-07-29T14:02:07;34.90;30.10
24618;DHT22;12762;51.730;5.356;2022-07-29T14:04:35;34.80;30.60
24618;DHT22;12762;51.730;5.356;2022-07-29T14:07:06;34.60;30.70
24618;DHT22;12762;51.730;5.356;2022-07-29T14:09:35;34.60;30.50
24618;DHT22;12762;51.730;5.356;2022-07-29T14:12:07;34.60;30.60
24618;DHT22;12762;51.730;5.356;2022-07-29T14:14:34;34.60;30.40
24618;DHT22;12762;51.730;5.356;2022-07-29T14:17:03;34.50;30.30
24618;DHT22;12762;51.730;5.356;2022-07-29T14:19:33;34.40;30.00
24618;DHT22;12762;51.730;5.356;2022-07-29T14:22:04;34.10;30.30
24618;DHT22;12762;51.730;5.356;2022-07-29T14:24:32;34.10;30.50
24618;DHT22;12762;51.730;5.356;2022-07-29T14:27:02;34.00;30.90
24618;DHT22;12762;51.730;5.356;2022-07-29T14:29:29;34.10;31.30
24618;DHT22;12762;51.730;5.356;2022-07-29T14:32:05;34.30;31.50
24618;DHT22;12762;51.730;5.356;2022-07-29T14:34:33;34.40;31.00
24618;DHT22;12762;51.730;5.356;2022-07-29T14:37:02;34.30;30.50
24618;DHT22;12762;51.730;5.356;2022-07-29T14:39:32;34.10;30.20
24618;DHT22;12762;51.730;5.356;2022-07-29T14:41:59;33.80;30.40
24618;DHT22;12762;51.730;5.356;2022-07-29T14:44:26;33.80;30.50
24618;DHT22;12762;51.730;5.356;2022-07-29T14:46:58;33.70;30.20
24618;DHT22;12762;51.730;5.356;2022-07-29T14:49:29;33.30;30.60
24618;DHT22;12762;51.730;5.356;2022-07-29T14:51:56;33.30;31.20
24618;DHT22;12762;51.730;5.356;2022-07-29T14:54:23;33.30;31.00
24618;DHT22;12762;51.730;5.356;2022-07-29T14:56:49;33.40;30.90
24618;DHT22;12762;51.730;5.356;2022-07-29T14:59:17;33.60;30.90
24618;DHT22;12762;51.730;5.356;2022-07-29T15:01:45;33.70;30.60
24618;DHT22;12762;51.730;5.356;2022-07-29T15:04:12;33.70;30.40
24618;DHT22;12762;51.730;5.356;2022-07-29T15:06:39;33.70;30.30
24618;DHT22;12762;51.730;5.356;2022-07-29T15:09:06;33.70;30.00
24618;DHT22;12762;51.730;5.356;2022-07-29T15:11:32;33.50;30.00
24618;DHT22;12762;51.730;5.356;2022-07-29T15:14:05;33.40;30.00
24618;DHT22;12762;51.730;5.356;2022-07-29T15:16:35;33.20;30.20
24618;DHT22;12762;51.730;5.356;2022-07-29T15:19:02;33.10;30.40
24618;DHT22;12762;51.730;5.356;2022-07-29T15:21:29;33.10;30.70
24618;DHT22;12762;51.730;5.356;2022-07-29T15:23:56;33.10;30.40
24618;DHT22;12762;51.730;5.356;2022-07-29T15:26:22;33.10;30.60
24618;DHT22;12762;51.730;5.356;2022-07-29T15:28:50;33.00;30.90
24618;DHT22;12762;51.730;5.356;2022-07-29T15:31:17;33.10;31.00
24618;DHT22;12762;51.730;5.356;2022-07-29T15:33:50;33.10;30.90
24618;DHT22;12762;51.730;5.356;2022-07-29T15:36:23;33.30;30.90
24618;DHT22;12762;51.730;5.356;2022-07-29T15:39:11;33.30;30.50
24618;DHT22;12762;51.730;5.356;2022-07-29T15:41:40;33.30;30.30
24618;DHT22;12762;51.730;5.356;2022-07-29T15:44:07;33.10;30.00
24618;DHT22;12762;51.730;5.356;2022-07-29T15:46:34;32.90;29.90
24618;DHT22;12762;51.730;5.356;2022-07-29T15:49:20;32.70;30.00
24618;DHT22;12762;51.730;5.356;2022-07-29T15:51:48;32.40;30.30
24618;DHT22;12762;51.730;5.356;2022-07-29T15:54:15;32.30;30.20
24618;DHT22;12762;51.730;5.356;2022-07-29T15:56:43;32.10;30.40
24618;DHT22;12762;51.730;5.356;2022-07-29T15:59:09;32.10;30.60
24618;DHT22;12762;51.730;5.356;2022-07-29T16:01:48;32.00;30.60
24618;DHT22;12762;51.730;5.356;2022-07-29T16:04:16;32.00;30.70
24618;DHT22;12762;51.730;5.356;2022-07-29T16:06:45;32.00;31.00
24618;DHT22;12762;51.730;5.356;2022-07-29T16:09:13;32.00;31.10
24618;DHT22;12762;51.730;5.356;2022-07-29T16:11:41;32.10;30.80
24618;DHT22;12762;51.730;5.356;2022-07-29T16:14:09;32.20;31.30
24618;DHT22;12762;51.730;5.356;2022-07-29T16:16:39;32.00;30.10
24618;DHT22;12762;51.730;5.356;2022-07-29T16:19:07;31.90;30.40
24618;DHT22;12762;51.730;5.356;2022-07-29T16:21:35;31.90;30.50
24618;DHT22;12762;51.730;5.356;2022-07-29T16:24:04;31.80;30.40
24618;DHT22;12762;51.730;5.356;2022-07-29T16:26:34;31.80;30.30
24618;DHT22;12762;51.730;5.356;2022-07-29T16:29:02;31.80;30.30
24618;DHT22;12762;51.730;5.356;2022-07-29T16:31:29;31.70;30.60
24618;DHT22;12762;51.730;5.356;2022-07-29T16:33:57;31.60;30.80
24618;DHT22;12762;51.730;5.356;2022-07-29T16:36:26;31.60;31.10
24618;DHT22;12762;51.730;5.356;2022-07-29T16:38:52;31.60;31.10
24618;DHT22;12762;51.730;5.356;2022-07-29T16:41:23;31.50;31.30
24618;DHT22;12762;51.730;5.356;2022-07-29T16:43:50;31.50;31.60
24618;DHT22;12762;51.730;5.356;2022-07-29T16:46:17;31.40;31.60
24618;DHT22;12762;51.730;5.356;2022-07-29T16:48:49;31.50;31.60
24618;DHT22;12762;51.730;5.356;2022-07-29T16:51:16;31.50;31.60
24618;DHT22;12762;51.730;5.356;2022-07-29T16:53:43;31.50;31.90
24618;DHT22;12762;51.730;5.356;2022-07-29T16:56:15;31.50;31.90
24618;DHT22;12762;51.730;5.356;2022-07-29T16:58:42;31.40;31.90